Flight Track Log - Related Links

Times and Time Zones

All times are in EDT time to prevent confusion due to time zone crossing. See the RPA3228 flight status page for this flight to view local times or setup timezone preferences in your user account.

Time Position Orientation Groundspeed Altitude Reporting Facility
EDT Latitude Longitude Course Direction KTS MPH feet Rate Location/Type
Fri 10:34:00 AM 39.1235 -77.1436 337° Northwest  Level Estimated
Fri 10:35:00 AM 39.2075 -77.1994 333° Northwest  Level FlightAware Approximate
Fri 10:36:00 AM 39.2981 -77.2345 333° Northwest  Level Estimated
Fri 10:37:00 AM 39.3887 -77.2697 339° North  Level Estimated
Fri 10:38:00 AM 39.4793 -77.3050 339° North  Level Estimated
Fri 10:39:00 AM 39.5698 -77.3403 North  Level Estimated
Fri 10:40:00 AM 39.6604 -77.3758 North  Level Estimated
Fri 10:41:00 AM 39.7509 -77.4113 North  Level Estimated
Fri 10:42:00 AM 39.8415 -77.4470 North  Level Estimated
Fri 10:43:00 AM 39.9320 -77.4827 North  Level Estimated
Fri 10:44:00 AM 40.0225 -77.5185 North  Level Estimated
Fri 10:45:00 AM 40.1130 -77.5544 North  Level Estimated
Fri 10:46:00 AM 40.2034 -77.5905 North  Level Estimated
Fri 10:47:00 AM 40.2939 -77.6266 North  Level Estimated
Fri 10:48:00 AM 40.3844 -77.6628 North  Level Estimated
Fri 10:49:00 AM 40.4748 -77.6991 North  Level Estimated
Fri 10:50:00 AM 40.5653 -77.7355 North  Level Estimated
Fri 10:51:00 AM 40.6557 -77.7720 North  Level Estimated
Fri 10:52:00 AM 40.7461 -77.8086 North  Level Estimated
Fri 10:53:00 AM 40.8225 -77.7349 36° Northeast  Level FlightAware Approximate
Fri 10:54:00 AM 40.8988 -77.6611 36° Northeast  Level FlightAware Approximate
Fri 10:55:00 AM 40.9871 -77.7059 North  Level Estimated
Fri 10:56:00 AM 41.0661 -77.6369 33° Northeast  Level FlightAware Approximate
Fri 10:57:00 AM 41.1531 -77.6861 North  Level Estimated
Fri 10:58:00 AM 41.2381 -77.6311 26° Northeast  Level FlightAware Approximate
Fri 10:59:00 AM 41.3237 -77.6848 North  Level Estimated
Fri 11:00:00 AM 41.4092 -77.7386 323° Northwest  Level Estimated
Fri 11:01:00 AM 41.4947 -77.7926 312° West  Level Estimated
Fri 11:02:00 AM 41.5801 -77.8467 310° West  Level Estimated
Fri 11:03:00 AM 41.6732 -77.8247 10° North  Level FlightAware Approximate
Fri 11:04:00 AM 41.7571 -77.8833 316° Northwest  Level Estimated
Fri 11:05:00 AM 41.8493 -77.9115 347° North  Level FlightAware Approximate
Fri 11:06:00 AM 41.9415 -77.9397 347° North  Level FlightAware Approximate
Fri 11:07:00 AM 42.0234 -78.0034 329° Northwest  Level Estimated
Fri 11:08:00 AM 42.1121 -78.0477 340° North  Level FlightAware Approximate
Fri 11:09:00 AM 42.1931 -78.1135 334° Northwest  Level Estimated
Fri 11:10:00 AM 42.2796 -78.1650 336° Northwest  Level FlightAware Approximate
Fri 11:11:00 AM 42.3598 -78.2328 324° Northwest  Level Estimated
Fri 11:12:00 AM 42.4399 -78.3009 328° Northwest  Level Estimated
Fri 11:13:00 AM 42.5200 -78.3691 330° Northwest  Level Estimated
Fri 11:14:00 AM 42.6060 -78.4225 335° Northwest  Level FlightAware Approximate
Fri 11:15:00 AM 42.6844 -78.4944 334° Northwest  Level Estimated
Fri 11:16:00 AM 42.7628 -78.5665 324° Northwest  Level Estimated
Fri 11:17:00 AM 42.8411 -78.6387 289° West  Level Estimated
Fri 11:18:00 AM 42.9194 -78.7111 289° West  Level Estimated
Fri 11:19:00 AM 42.9333 -78.7167 289° West  Level FlightAware Approximate
Fri 11:20:00 AM 42.9404 -78.7306 289° West  Level Estimated
Fri 11:21:00 AM 42.9404 -78.7306 289° West  Level Estimated
Fri 11:22:00 AM 42.9404 -78.7306 289° West  Level Estimated
Fri 11:23:00 AM 42.9404 -78.7306 289° West  Level Estimated
Fri 11:24:00 AM 42.9404 -78.7306 289° West  Level Estimated
Fri 11:25:00 AM 42.9404 -78.7306 289° West  Level Estimated
Fri 11:26:00 AM 42.9404 -78.7306 289° West  Level Estimated
Fri 11:27:00 AM 42.9404 -78.7306 289° West  Level Estimated
Fri 11:28:00 AM 42.9404 -78.7306 289° West  Level Estimated
Fri 11:29:00 AM 42.9404 -78.7306 289° West  Level Estimated
Fri 11:30:00 AM 42.9404 -78.7306 289° West  Level Estimated
Fri 11:31:00 AM 42.9404 -78.7306 289° West  Level Estimated
Fri 11:32:00 AM 42.9404 -78.7306 289° West  Level Estimated
Fri 11:33:00 AM 42.9404 -78.7306 289° West  Level Estimated
Fri 11:34:00 AM 42.9404 -78.7306 289° West  Level Estimated
Fri 11:35:00 AM 42.9404 -78.7306 289° West  Level Estimated

Login

Don't have an account? Register now (free) for customized features, flight alerts, and more!